Time;durP1;ratioP1;P1;durP2;ratioP2;P2;SDS_P1;SDS_P2;PMS_P1;PMS_P2;Temp;Humidity;BMP_temperature;BMP_pressure;BME280_temperature;BME280_humidity;BME280_pressure;Samples;Min_cycle;Max_cycle;Signal;HPM_P1;HPM_P2
2021/07/29 00:02:02;;;;;;;;;;;16.80;99.90;;;;;;5012608;28;19916;-42
2021/07/29 00:04:28;;;;;;;;;;;16.80;99.90;;;;;;5017142;28;19905;-41
2021/07/29 00:06:54;;;;;;;;;;;16.70;99.90;;;;;;5016123;28;19917;-42
2021/07/29 00:09:19;;;;;;;;;;;16.70;99.90;;;;;;5014520;28;19912;-40
2021/07/29 00:11:44;;;;;;;;;;;16.70;99.90;;;;;;5018249;28;19905;-42
2021/07/29 00:14:10;;;;;;;;;;;16.60;99.90;;;;;;5012858;28;19918;-40
2021/07/29 00:16:44;;;;;;;;;;;16.60;99.90;;;;;;5019702;28;19967;-40
2021/07/29 00:19:10;;;;;;;;;;;16.70;99.90;;;;;;5012070;28;19906;-43
2021/07/29 00:21:37;;;;;;;;;;;16.70;99.90;;;;;;5021085;28;19920;-37
2021/07/29 00:24:03;;;;;;;;;;;16.70;99.90;;;;;;5011370;28;20301;-40
2021/07/29 00:26:29;;;;;;;;;;;16.70;99.90;;;;;;5021414;28;20461;-43
2021/07/29 00:28:54;;;;;;;;;;;16.70;99.90;;;;;;5031071;28;19906;-42
2021/07/29 00:31:20;;;;;;;;;;;16.70;99.90;;;;;;5016531;28;19909;-41
2021/07/29 00:33:45;;;;;;;;;;;16.70;99.90;;;;;;5030097;28;19971;-39
2021/07/29 00:36:23;;;;;;;;;;;16.60;99.90;;;;;;5017160;28;19991;-41
2021/07/29 00:38:49;;;;;;;;;;;16.60;99.90;;;;;;5029730;28;19905;-42
2021/07/29 00:41:14;;;;;;;;;;;16.50;99.90;;;;;;5018230;28;19911;-42
2021/07/29 00:43:40;;;;;;;;;;;16.60;99.90;;;;;;5029125;28;19952;-41
2021/07/29 00:46:09;;;;;;;;;;;16.60;99.90;;;;;;5019759;28;19948;-42
2021/07/29 00:48:34;;;;;;;;;;;16.50;99.90;;;;;;5026796;28;20038;-38
2021/07/29 00:51:00;;;;;;;;;;;16.50;99.90;;;;;;5022166;28;19960;-39
2021/07/29 00:53:26;;;;;;;;;;;16.50;99.90;;;;;;5023274;28;19970;-42
2021/07/29 00:55:51;;;;;;;;;;;16.50;99.90;;;;;;5025278;28;19905;-42
2021/07/29 00:58:19;;;;;;;;;;;16.40;99.90;;;;;;5021907;28;20364;-40
2021/07/29 01:00:45;;;;;;;;;;;16.40;99.90;;;;;;5027278;28;20000;-40
2021/07/29 01:03:10;;;;;;;;;;;16.30;99.90;;;;;;5019291;28;20339;-42
2021/07/29 01:05:36;;;;;;;;;;;16.30;99.90;;;;;;5026744;28;20337;-38
2021/07/29 01:08:04;;;;;;;;;;;16.30;99.90;;;;;;5018623;28;19908;-42
2021/07/29 01:10:30;;;;;;;;;;;16.30;99.90;;;;;;5028191;28;19905;-42
2021/07/29 01:12:55;;;;;;;;;;;16.20;99.90;;;;;;5018166;28;19928;-42
2021/07/29 01:15:21;;;;;;;;;;;16.20;99.90;;;;;;5028760;28;20357;-42
2021/07/29 01:17:46;;;;;;;;;;;16.20;99.90;;;;;;5016893;28;19917;-42
2021/07/29 01:20:19;;;;;;;;;;;16.10;99.90;;;;;;5029621;28;20254;-38
2021/07/29 01:22:45;;;;;;;;;;;16.10;99.90;;;;;;5016467;28;19909;-40
2021/07/29 01:25:10;;;;;;;;;;;16.10;99.90;;;;;;5029911;28;20007;-40
2021/07/29 01:27:39;;;;;;;;;;;16.10;99.90;;;;;;5015297;28;20051;-40
2021/07/29 01:30:04;;;;;;;;;;;16.10;99.90;;;;;;5027883;28;20209;-40
2021/07/29 01:32:30;;;;;;;;;;;16.10;99.90;;;;;;5020836;28;19905;-40
2021/07/29 01:34:56;;;;;;;;;;;16.20;99.90;;;;;;5024275;28;20383;-40
2021/07/29 01:37:21;;;;;;;;;;;16.30;99.90;;;;;;5022670;28;20269;-41
2021/07/29 01:39:47;;;;;;;;;;;16.30;99.90;;;;;;5022343;28;19905;-39
2021/07/29 01:42:12;;;;;;;;;;;16.40;99.90;;;;;;5024636;28;19905;-41
2021/07/29 01:44:38;;;;;;;;;;;16.40;99.90;;;;;;5018589;28;20397;-41
2021/07/29 01:47:03;;;;;;;;;;;16.40;99.90;;;;;;5027657;28;20077;-42
2021/07/29 01:49:29;;;;;;;;;;;16.50;99.90;;;;;;5016878;28;19915;-40
2021/07/29 01:51:54;;;;;;;;;;;16.50;99.90;;;;;;5027895;28;19932;-38
2021/07/29 01:54:22;;;;;;;;;;;16.50;99.90;;;;;;5017407;28;20293;-41
2021/07/29 01:56:48;;;;;;;;;;;16.50;99.90;;;;;;5028719;28;20411;-41
2021/07/29 01:59:13;;;;;;;;;;;16.40;99.90;;;;;;5016204;28;19908;-37
2021/07/29 02:01:40;;;;;;;;;;;16.50;99.90;;;;;;5028034;28;19959;-42
2021/07/29 02:04:05;;;;;;;;;;;16.50;99.90;;;;;;5016207;28;19905;-42
2021/07/29 02:06:33;;;;;;;;;;;16.40;99.90;;;;;;5028111;28;20404;-41
2021/07/29 02:08:59;;;;;;;;;;;16.50;99.90;;;;;;5018381;28;19905;-41
2021/07/29 02:11:29;;;;;;;;;;;16.40;99.90;;;;;;5026407;28;19987;-42
2021/07/29 02:13:55;;;;;;;;;;;16.30;99.90;;;;;;5020719;28;19944;-43
2021/07/29 02:16:20;;;;;;;;;;;16.30;99.90;;;;;;5024319;28;20272;-40
2021/07/29 02:18:46;;;;;;;;;;;16.20;99.90;;;;;;5022443;28;19914;-40
2021/07/29 02:21:11;;;;;;;;;;;16.20;99.90;;;;;;5022081;28;19912;-42
2021/07/29 02:23:37;;;;;;;;;;;16.20;99.90;;;;;;5024484;28;19944;-42
2021/07/29 02:26:03;;;;;;;;;;;16.10;99.90;;;;;;5019437;28;19959;-40
2021/07/29 02:28:28;;;;;;;;;;;16.10;99.90;;;;;;5012985;28;19913;-39
2021/07/29 02:30:55;;;;;;;;;;;16.00;99.90;;;;;;5019926;28;19906;-39
2021/07/29 02:33:20;;;;;;;;;;;16.00;99.90;;;;;;5010045;28;19920;-41
2021/07/29 02:35:49;;;;;;;;;;;16.00;99.90;;;;;;5020078;28;20351;-42
2021/07/29 02:38:15;;;;;;;;;;;15.90;99.90;;;;;;5008541;28;19905;-42
2021/07/29 02:40:40;;;;;;;;;;;15.90;99.90;;;;;;5016263;28;19931;-42
2021/07/29 02:43:06;;;;;;;;;;;15.80;99.90;;;;;;5032606;28;19913;-39
2021/07/29 02:45:31;;;;;;;;;;;15.80;99.90;;;;;;5018176;28;20008;-41
2021/07/29 02:47:57;;;;;;;;;;;15.80;99.90;;;;;;5032524;28;19916;-37
2021/07/29 02:50:22;;;;;;;;;;;15.80;99.90;;;;;;5020891;28;19909;-41
2021/07/29 02:52:48;;;;;;;;;;;15.80;99.90;;;;;;5028898;28;19909;-42
2021/07/29 02:55:13;;;;;;;;;;;15.90;99.90;;;;;;5024627;28;20195;-42
2021/07/29 02:57:39;;;;;;;;;;;15.90;99.90;;;;;;5026827;28;19909;-40
2021/07/29 03:00:04;;;;;;;;;;;16.00;99.90;;;;;;5026536;28;19905;-39
2021/07/29 03:02:30;;;;;;;;;;;16.00;99.90;;;;;;5024505;28;19905;-41
2021/07/29 03:04:55;;;;;;;;;;;16.00;99.90;;;;;;5028645;28;20228;-40
2021/07/29 03:07:21;;;;;;;;;;;16.10;99.90;;;;;;5021363;28;20285;-43
2021/07/29 03:09:46;;;;;;;;;;;16.10;99.90;;;;;;5030274;28;20011;-42
2021/07/29 03:12:12;;;;;;;;;;;16.10;99.90;;;;;;5019240;28;19905;-40
2021/07/29 03:14:37;;;;;;;;;;;16.10;99.90;;;;;;5029797;28;20368;-42
2021/07/29 03:17:03;;;;;;;;;;;16.10;99.90;;;;;;5020211;28;20391;-41
2021/07/29 03:19:29;;;;;;;;;;;16.10;99.90;;;;;;5030594;28;19909;-39
2021/07/29 03:21:54;;;;;;;;;;;16.20;99.90;;;;;;5018688;28;19995;-43
2021/07/29 03:24:20;;;;;;;;;;;16.20;99.90;;;;;;5031421;28;20273;-39
2021/07/29 03:26:45;;;;;;;;;;;16.20;99.90;;;;;;5019960;28;19944;-37
2021/07/29 03:29:10;;;;;;;;;;;16.30;99.90;;;;;;5031161;28;19905;-41
2021/07/29 03:31:36;;;;;;;;;;;16.20;99.90;;;;;;5021184;28;19999;-40
2021/07/29 03:34:01;;;;;;;;;;;16.30;99.90;;;;;;5027864;28;19916;-42
2021/07/29 03:36:27;;;;;;;;;;;16.30;99.90;;;;;;5023668;28;19906;-42
2021/07/29 03:38:52;;;;;;;;;;;16.30;99.90;;;;;;5025460;28;19905;-41
2021/07/29 03:41:17;;;;;;;;;;;16.40;99.90;;;;;;5026382;28;19905;-39
2021/07/29 03:43:43;;;;;;;;;;;16.40;99.90;;;;;;5021425;28;20377;-45
2021/07/29 03:46:09;;;;;;;;;;;16.40;99.90;;;;;;5030155;28;19905;-39
2021/07/29 03:48:34;;;;;;;;;;;16.40;99.90;;;;;;5018477;28;20327;-40
2021/07/29 03:50:59;;;;;;;;;;;16.40;99.90;;;;;;5029089;28;19905;-39
2021/07/29 03:53:25;;;;;;;;;;;16.40;99.90;;;;;;5019157;28;19917;-41
2021/07/29 03:55:53;;;;;;;;;;;16.40;99.90;;;;;;5030069;28;19905;-38
2021/07/29 03:58:19;;;;;;;;;;;16.50;99.90;;;;;;5017829;28;20273;-39
2021/07/29 04:00:44;;;;;;;;;;;16.50;99.90;;;;;;5030810;28;20499;-40
2021/07/29 04:03:10;;;;;;;;;;;16.50;99.90;;;;;;5017702;28;19905;-42
2021/07/29 04:05:37;;;;;;;;;;;16.50;99.90;;;;;;5030000;28;19916;-42
2021/07/29 04:08:03;;;;;;;;;;;16.50;99.90;;;;;;5019078;28;19914;-40
2021/07/29 04:10:28;;;;;;;;;;;16.50;99.90;;;;;;5028289;28;19922;-40
2021/07/29 04:12:54;;;;;;;;;;;16.50;99.90;;;;;;5022133;28;19916;-41
2021/07/29 04:15:19;;;;;;;;;;;16.50;99.90;;;;;;5025960;28;20331;-41
2021/07/29 04:17:45;;;;;;;;;;;16.50;99.90;;;;;;5023594;28;19951;-37
2021/07/29 04:20:10;;;;;;;;;;;16.50;99.90;;;;;;5023703;28;19909;-42
2021/07/29 04:22:36;;;;;;;;;;;16.50;99.90;;;;;;5025560;28;19916;-41
2021/07/29 04:25:01;;;;;;;;;;;16.50;99.90;;;;;;5020909;28;19952;-39
2021/07/29 04:27:27;;;;;;;;;;;16.50;99.90;;;;;;5006913;28;20347;-39
2021/07/29 04:29:52;;;;;;;;;;;16.40;99.90;;;;;;5021194;28;19909;-39
2021/07/29 04:32:20;;;;;;;;;;;16.20;99.90;;;;;;5012004;28;19905;-41
2021/07/29 04:34:45;;;;;;;;;;;15.90;99.90;;;;;;5021222;28;20007;-42
2021/07/29 04:37:12;;;;;;;;;;;15.60;99.90;;;;;;5010846;28;19992;-44
2021/07/29 04:39:41;;;;;;;;;;;15.40;99.90;;;;;;5021755;28;19910;-42
2021/07/29 04:42:06;;;;;;;;;;;15.30;99.90;;;;;;5010866;28;19909;-42
2021/07/29 04:44:32;;;;;;;;;;;15.20;99.90;;;;;;5021346;28;19912;-44
2021/07/29 04:46:57;;;;;;;;;;;15.20;99.90;;;;;;5010759;28;19906;-44
2021/07/29 04:49:23;;;;;;;;;;;15.20;99.90;;;;;;5020289;28;19997;-44
2021/07/29 04:51:48;;;;;;;;;;;15.20;99.90;;;;;;5011874;28;19912;-45
2021/07/29 04:54:16;;;;;;;;;;;15.10;99.90;;;;;;5018142;28;20062;-45
2021/07/29 04:56:42;;;;;;;;;;;15.00;99.90;;;;;;5013359;28;19909;-44
2021/07/29 04:59:07;;;;;;;;;;;15.00;99.90;;;;;;5015768;28;20531;-42
2021/07/29 05:01:39;;;;;;;;;;;14.90;99.90;;;;;;5015713;28;19913;-41
2021/07/29 05:04:04;;;;;;;;;;;14.90;99.90;;;;;;5013151;28;19905;-44
2021/07/29 05:06:30;;;;;;;;;;;14.80;99.90;;;;;;5017844;28;20004;-44
2021/07/29 05:08:58;;;;;;;;;;;14.90;99.90;;;;;;5010896;28;19928;-44
2021/07/29 05:11:26;;;;;;;;;;;14.80;99.90;;;;;;5007103;28;19909;-44
2021/07/29 05:13:53;;;;;;;;;;;14.80;99.90;;;;;;5028203;28;20000;-44
2021/07/29 05:16:19;;;;;;;;;;;14.80;99.90;;;;;;5018131;28;19905;-43
2021/07/29 05:18:44;;;;;;;;;;;14.90;99.90;;;;;;5028235;28;20750;-45
2021/07/29 05:21:10;;;;;;;;;;;14.90;99.90;;;;;;5017836;28;19909;-43
2021/07/29 05:23:35;;;;;;;;;;;15.00;99.90;;;;;;5028543;28;19959;-41
2021/07/29 05:26:01;;;;;;;;;;;15.00;99.90;;;;;;5016538;28;20278;-44
2021/07/29 05:28:26;;;;;;;;;;;15.10;99.90;;;;;;5015795;28;20403;-43
2021/07/29 05:30:52;;;;;;;;;;;15.00;99.90;;;;;;5020745;28;20265;-44
2021/07/29 05:33:17;;;;;;;;;;;15.10;99.90;;;;;;5010033;28;19913;-44
2021/07/29 05:35:43;;;;;;;;;;;15.10;99.90;;;;;;5017481;28;20007;-42
2021/07/29 05:38:08;;;;;;;;;;;15.20;99.90;;;;;;5013267;28;19912;-40
2021/07/29 05:40:35;;;;;;;;;;;15.30;99.90;;;;;;5014272;28;20311;-42
2021/07/29 05:43:00;;;;;;;;;;;15.40;99.90;;;;;;5015617;28;20012;-42
2021/07/29 05:45:28;;;;;;;;;;;15.50;99.90;;;;;;5012253;28;20778;-43
2021/07/29 05:47:53;;;;;;;;;;;15.50;99.90;;;;;;5016576;28;20367;-43
2021/07/29 05:50:19;;;;;;;;;;;15.60;99.90;;;;;;5010725;28;19909;-44
2021/07/29 05:52:44;;;;;;;;;;;15.60;99.90;;;;;;5019751;28;19905;-44
2021/07/29 05:55:10;;;;;;;;;;;15.60;99.90;;;;;;5010411;28;19959;-44
2021/07/29 05:57:35;;;;;;;;;;;15.60;99.90;;;;;;5019667;28;20330;-43
2021/07/29 06:00:01;;;;;;;;;;;15.60;99.90;;;;;;5009658;28;19906;-42
2021/07/29 06:02:26;;;;;;;;;;;15.60;99.90;;;;;;5020687;28;19909;-44
2021/07/29 06:04:52;;;;;;;;;;;15.60;99.90;;;;;;5009352;28;19905;-43
2021/07/29 06:07:18;;;;;;;;;;;15.60;99.90;;;;;;5021469;28;19942;-44
2021/07/29 06:09:43;;;;;;;;;;;15.50;99.90;;;;;;5008479;28;20281;-39
2021/07/29 06:12:09;;;;;;;;;;;15.60;99.90;;;;;;5019856;28;19911;-43
2021/07/29 06:14:34;;;;;;;;;;;15.70;99.90;;;;;;5011046;28;19924;-40
2021/07/29 06:17:00;;;;;;;;;;;15.70;99.90;;;;;;5019773;28;20308;-44
2021/07/29 06:19:29;;;;;;;;;;;15.80;99.90;;;;;;5016912;28;19909;-44
2021/07/29 06:21:55;;;;;;;;;;;15.90;99.90;;;;;;5017330;28;19911;-44
2021/07/29 06:24:21;;;;;;;;;;;15.90;99.90;;;;;;5018957;28;20003;-44
2021/07/29 06:26:48;;;;;;;;;;;15.80;99.90;;;;;;5015572;28;20028;-45
2021/07/29 06:29:13;;;;;;;;;;;15.90;99.90;;;;;;5013230;28;19925;-43
2021/07/29 06:31:39;;;;;;;;;;;15.80;99.90;;;;;;5016644;28;20323;-44
2021/07/29 06:34:04;;;;;;;;;;;15.70;99.90;;;;;;5021179;28;19921;-39
2021/07/29 06:36:30;;;;;;;;;;;15.70;99.90;;;;;;5030134;28;19951;-41
2021/07/29 06:38:55;;;;;;;;;;;15.80;99.90;;;;;;5020685;28;19936;-43
2021/07/29 06:41:21;;;;;;;;;;;15.80;99.90;;;;;;5032777;28;19944;-44
2021/07/29 06:43:46;;;;;;;;;;;15.80;99.90;;;;;;5019121;28;20394;-44
2021/07/29 06:46:12;;;;;;;;;;;15.80;99.90;;;;;;5032082;28;20412;-40
2021/07/29 06:48:38;;;;;;;;;;;15.90;99.90;;;;;;5017432;28;20293;-41
2021/07/29 06:51:04;;;;;;;;;;;16.00;99.90;;;;;;5031886;28;20379;-41
2021/07/29 06:53:30;;;;;;;;;;;16.20;99.90;;;;;;5021125;28;19961;-40
2021/07/29 06:55:59;;;;;;;;;;;16.40;99.90;;;;;;5029853;28;19966;-46
2021/07/29 06:58:25;;;;;;;;;;;16.60;99.90;;;;;;5022646;28;19989;-45
2021/07/29 07:00:50;;;;;;;;;;;16.70;99.90;;;;;;5027676;28;20342;-38
2021/07/29 07:03:16;;;;;;;;;;;16.80;99.90;;;;;;5026281;28;19960;-41
2021/07/29 07:05:45;;;;;;;;;;;16.80;99.90;;;;;;5024017;28;20003;-40
2021/07/29 07:08:11;;;;;;;;;;;17.00;99.90;;;;;;5028554;28;19909;-44
2021/07/29 07:10:36;;;;;;;;;;;17.00;99.90;;;;;;5022250;28;19909;-44
2021/07/29 07:13:02;;;;;;;;;;;17.10;99.90;;;;;;5029094;28;19954;-43
2021/07/29 07:15:27;;;;;;;;;;;17.10;99.90;;;;;;5019972;28;19905;-41
2021/07/29 07:17:53;;;;;;;;;;;17.10;99.90;;;;;;5029813;28;19909;-43
2021/07/29 07:20:19;;;;;;;;;;;17.20;99.90;;;;;;5019681;28;19912;-46
2021/07/29 07:22:44;;;;;;;;;;;17.20;99.90;;;;;;5031153;28;19905;-42
2021/07/29 07:25:10;;;;;;;;;;;17.30;99.90;;;;;;5017898;28;19916;-44
2021/07/29 07:27:36;;;;;;;;;;;17.40;99.90;;;;;;5024586;28;19906;-46
2021/07/29 07:30:02;;;;;;;;;;;17.40;99.90;;;;;;5023496;28;20288;-41
2021/07/29 07:32:28;;;;;;;;;;;17.50;99.90;;;;;;5010952;28;19905;-46
2021/07/29 07:34:53;;;;;;;;;;;17.50;99.90;;;;;;5021157;28;19928;-44
2021/07/29 07:37:19;;;;;;;;;;;17.60;99.90;;;;;;5013342;28;19905;-44
2021/07/29 07:39:45;;;;;;;;;;;17.60;99.90;;;;;;5018154;28;20250;-45
2021/07/29 07:42:11;;;;;;;;;;;17.60;99.90;;;;;;5015925;28;20336;-44
2021/07/29 07:44:36;;;;;;;;;;;17.60;99.90;;;;;;5015872;28;20384;-45
2021/07/29 07:47:02;;;;;;;;;;;17.50;99.90;;;;;;5017724;28;19971;-45
2021/07/29 07:49:27;;;;;;;;;;;17.50;99.90;;;;;;5012918;28;19912;-43
2021/07/29 07:51:52;;;;;;;;;;;17.60;99.90;;;;;;5020847;28;19905;-43
2021/07/29 07:54:18;;;;;;;;;;;17.60;99.90;;;;;;5011555;28;19920;-45
2021/07/29 07:56:44;;;;;;;;;;;17.70;99.90;;;;;;5022075;28;20008;-43
2021/07/29 07:59:09;;;;;;;;;;;17.80;99.90;;;;;;5012189;28;19905;-42
2021/07/29 08:01:42;;;;;;;;;;;17.80;99.90;;;;;;5020997;28;19948;-46
2021/07/29 08:04:08;;;;;;;;;;;17.90;99.90;;;;;;5010863;28;19963;-44
2021/07/29 08:06:33;;;;;;;;;;;18.00;99.90;;;;;;5022103;28;19984;-45
2021/07/29 08:09:00;;;;;;;;;;;18.00;99.90;;;;;;5010633;28;19913;-44
2021/07/29 08:11:25;;;;;;;;;;;18.00;99.90;;;;;;5021927;28;19991;-44
2021/07/29 08:13:57;;;;;;;;;;;18.00;99.90;;;;;;5010538;28;20441;-44
2021/07/29 08:16:22;;;;;;;;;;;18.00;99.90;;;;;;5020308;28;19932;-45
2021/07/29 08:18:47;;;;;;;;;;;18.00;99.90;;;;;;5011246;28;20324;-45
2021/07/29 08:21:13;;;;;;;;;;;18.10;99.90;;;;;;5018991;28;19909;-45
2021/07/29 08:23:39;;;;;;;;;;;18.20;99.90;;;;;;5013535;28;19916;-44
2021/07/29 08:26:05;;;;;;;;;;;18.30;99.90;;;;;;5015663;28;19909;-46
2021/07/29 08:28:31;;;;;;;;;;;18.40;99.50;;;;;;5027861;28;19987;-45
2021/07/29 08:30:56;;;;;;;;;;;18.50;99.70;;;;;;5026444;28;19996;-42
2021/07/29 08:33:22;;;;;;;;;;;18.50;99.50;;;;;;5020862;28;19976;-45
2021/07/29 08:35:48;;;;;;;;;;;18.70;98.00;;;;;;5027544;28;19988;-42
2021/07/29 08:38:13;;;;;;;;;;;18.80;98.20;;;;;;5018951;28;19905;-45
2021/07/29 08:40:39;;;;;;;;;;;19.00;98.10;;;;;;5027997;28;19912;-43
2021/07/29 08:43:04;;;;;;;;;;;19.00;97.80;;;;;;5017404;28;19909;-45
2021/07/29 08:45:31;;;;;;;;;;;18.90;97.80;;;;;;5028768;28;19931;-43
2021/07/29 08:47:56;;;;;;;;;;;18.90;97.70;;;;;;5016809;28;19905;-41
2021/07/29 08:50:23;;;;;;;;;;;18.90;97.60;;;;;;5028920;28;20351;-41
2021/07/29 08:52:49;;;;;;;;;;;19.00;97.20;;;;;;5016863;28;20369;-38
2021/07/29 08:55:15;;;;;;;;;;;19.10;96.80;;;;;;5030200;28;19944;-41
2021/07/29 08:57:42;;;;;;;;;;;19.20;96.50;;;;;;5017674;28;19973;-41
2021/07/29 09:00:09;;;;;;;;;;;19.20;96.60;;;;;;5027506;28;19909;-42
2021/07/29 09:02:34;;;;;;;;;;;19.20;96.70;;;;;;5021127;28;19909;-44
2021/07/29 09:05:17;;;;;;;;;;;19.10;96.60;;;;;;5024686;28;20394;-46
2021/07/29 09:07:43;;;;;;;;;;;19.20;96.20;;;;;;5020235;28;19921;-39
2021/07/29 09:10:19;;;;;;;;;;;19.30;96.40;;;;;;5025150;28;19959;-42
2021/07/29 09:12:45;;;;;;;;;;;19.30;96.50;;;;;;5021578;28;19928;-42
2021/07/29 09:15:20;;;;;;;;;;;19.40;96.50;;;;;;5024466;28;19913;-43
2021/07/29 09:17:45;;;;;;;;;;;19.40;96.30;;;;;;5023014;28;19909;-40
2021/07/29 09:20:18;;;;;;;;;;;19.40;96.40;;;;;;5023083;28;20056;-43
2021/07/29 09:22:43;;;;;;;;;;;19.40;96.50;;;;;;5024831;28;19916;-43
2021/07/29 09:25:10;;;;;;;;;;;19.50;95.50;;;;;;5019864;28;19905;-40
2021/07/29 09:27:38;;;;;;;;;;;19.50;95.60;;;;;;5027525;28;20011;-43
2021/07/29 09:30:15;;;;;;;;;;;19.50;95.70;;;;;;5018317;28;20399;-41
2021/07/29 09:32:52;;;;;;;;;;;19.50;94.90;;;;;;5026701;28;19990;-43
2021/07/29 09:35:36;;;;;;;;;;;19.40;94.30;;;;;;5009385;28;19913;-37
2021/07/29 09:38:03;;;;;;;;;;;19.40;94.50;;;;;;5026567;28;19909;-42
2021/07/29 09:40:42;;;;;;;;;;;19.50;94.00;;;;;;5016773;28;19928;-42
2021/07/29 09:43:12;;;;;;;;;;;19.60;94.30;;;;;;5027303;28;20390;-42
2021/07/29 09:45:38;;;;;;;;;;;19.70;93.80;;;;;;5017764;28;20275;-42
2021/07/29 09:48:07;;;;;;;;;;;19.90;94.20;;;;;;5026565;28;19992;-40
2021/07/29 09:50:36;;;;;;;;;;;20.00;93.60;;;;;;5020169;28;19909;-43
2021/07/29 09:53:02;;;;;;;;;;;20.00;93.40;;;;;;5030799;28;19916;-42
2021/07/29 09:55:29;;;;;;;;;;;20.00;93.20;;;;;;5021659;28;20269;-42
2021/07/29 09:57:54;;;;;;;;;;;20.00;93.40;;;;;;5033260;28;19904;-38
2021/07/29 10:00:20;;;;;;;;;;;19.90;93.80;;;;;;5018730;28;20412;-43
2021/07/29 10:02:46;;;;;;;;;;;19.90;93.80;;;;;;5032460;28;19912;-42
2021/07/29 10:05:13;;;;;;;;;;;20.00;93.60;;;;;;5019839;28;19905;-42
2021/07/29 10:07:40;;;;;;;;;;;20.10;93.60;;;;;;5031588;28;19960;-43
2021/07/29 10:10:15;;;;;;;;;;;20.00;93.60;;;;;;5022288;28;19917;-39
2021/07/29 10:12:45;;;;;;;;;;;19.90;93.40;;;;;;5031322;28;20376;-39
2021/07/29 10:15:17;;;;;;;;;;;19.80;93.50;;;;;;5021369;28;20207;-42
2021/07/29 10:17:46;;;;;;;;;;;19.70;93.40;;;;;;5031011;28;19905;-42
2021/07/29 10:20:20;;;;;;;;;;;19.70;93.10;;;;;;5022894;28;19917;-43
2021/07/29 10:22:49;;;;;;;;;;;19.80;93.50;;;;;;5029137;28;19905;-42
2021/07/29 10:25:15;;;;;;;;;;;19.90;93.60;;;;;;5024182;28;19912;-40
2021/07/29 10:28:00;;;;;;;;;;;19.90;93.50;;;;;;5023333;28;19910;-41
2021/07/29 10:30:26;;;;;;;;;;;19.90;93.20;;;;;;5018856;28;19909;-41
2021/07/29 10:32:52;;;;;;;;;;;19.80;93.50;;;;;;5017209;28;19905;-43
2021/07/29 10:35:29;;;;;;;;;;;19.70;94.40;;;;;;5017094;28;19917;-44
2021/07/29 10:37:55;;;;;;;;;;;19.30;95.80;;;;;;5017629;28;19913;-43
2021/07/29 10:40:33;;;;;;;;;;;18.90;96.30;;;;;;5015657;28;19913;-43
2021/07/29 10:43:17;;;;;;;;;;;18.70;96.70;;;;;;5017546;28;19909;-42
2021/07/29 10:45:47;;;;;;;;;;;18.60;97.10;;;;;;5017210;28;19905;-42
2021/07/29 10:48:32;;;;;;;;;;;18.60;97.60;;;;;;5018099;28;20464;-42
2021/07/29 10:51:14;;;;;;;;;;;18.50;98.10;;;;;;5017745;28;20456;-40
2021/07/29 10:53:40;;;;;;;;;;;17.90;99.90;;;;;;5015429;28;19913;-41
2021/07/29 10:56:09;;;;;;;;;;;17.30;99.90;;;;;;5015993;28;19909;-41
2021/07/29 10:58:38;;;;;;;;;;;16.90;99.90;;;;;;5017959;28;19914;-37
2021/07/29 11:01:03;;;;;;;;;;;16.50;99.90;;;;;;5014291;28;20016;-42
2021/07/29 11:03:29;;;;;;;;;;;16.50;99.90;;;;;;5019403;28;19930;-40
2021/07/29 11:06:03;;;;;;;;;;;16.40;99.90;;;;;;5013315;28;19936;-40
2021/07/29 11:08:29;;;;;;;;;;;16.40;99.90;;;;;;5020662;28;19929;-41
2021/07/29 11:10:56;;;;;;;;;;;16.40;99.90;;;;;;5012312;28;19939;-41
2021/07/29 11:13:22;;;;;;;;;;;16.40;99.90;;;;;;5022181;28;19914;-43
2021/07/29 11:15:47;;;;;;;;;;;16.50;99.90;;;;;;5013189;28;19963;-41
2021/07/29 11:18:16;;;;;;;;;;;16.50;99.90;;;;;;5022184;28;19953;-42
2021/07/29 11:20:42;;;;;;;;;;;16.70;99.90;;;;;;5011730;28;19913;-39
2021/07/29 11:23:13;;;;;;;;;;;17.00;99.90;;;;;;5023683;28;19909;-41
2021/07/29 11:25:54;;;;;;;;;;;17.10;99.90;;;;;;5010241;28;19910;-43
2021/07/29 11:28:19;;;;;;;;;;;17.30;99.90;;;;;;5017769;28;20344;-42
2021/07/29 11:30:45;;;;;;;;;;;17.40;99.90;;;;;;5011527;28;20058;-42
2021/07/29 11:33:25;;;;;;;;;;;17.50;99.90;;;;;;5022885;28;19920;-43
2021/07/29 11:35:52;;;;;;;;;;;17.60;99.90;;;;;;5011837;28;19927;-41
2021/07/29 11:38:18;;;;;;;;;;;17.60;99.90;;;;;;5022450;28;19915;-44
2021/07/29 11:40:44;;;;;;;;;;;17.80;99.90;;;;;;5011132;28;19916;-42
2021/07/29 11:43:20;;;;;;;;;;;17.90;99.90;;;;;;5021332;28;19905;-41
2021/07/29 11:45:45;;;;;;;;;;;18.00;99.90;;;;;;5010956;28;19992;-42
2021/07/29 11:48:21;;;;;;;;;;;18.10;99.90;;;;;;5019532;28;19999;-39
2021/07/29 11:50:47;;;;;;;;;;;18.10;99.90;;;;;;5013063;28;19909;-40
2021/07/29 11:53:12;;;;;;;;;;;18.00;99.90;;;;;;5016612;28;19916;-42
2021/07/29 11:55:39;;;;;;;;;;;18.00;99.90;;;;;;5015082;28;19909;-42
2021/07/29 11:58:13;;;;;;;;;;;18.00;99.90;;;;;;5016143;28;20134;-40
2021/07/29 12:00:39;;;;;;;;;;;17.90;99.90;;;;;;5016040;28;19910;-41
2021/07/29 12:03:05;;;;;;;;;;;18.00;99.90;;;;;;5014389;28;19913;-40
2021/07/29 12:05:31;;;;;;;;;;;18.10;99.90;;;;;;5017802;28;19906;-40
2021/07/29 12:07:57;;;;;;;;;;;18.10;99.90;;;;;;5011581;28;19921;-41
2021/07/29 12:10:25;;;;;;;;;;;18.30;99.90;;;;;;5021557;28;20351;-43
2021/07/29 12:12:50;;;;;;;;;;;18.40;99.90;;;;;;5012475;28;19932;-42
2021/07/29 12:15:16;;;;;;;;;;;18.50;99.90;;;;;;5020635;28;20369;-41
2021/07/29 12:17:48;;;;;;;;;;;18.70;99.90;;;;;;5010274;28;20051;-42
2021/07/29 12:20:14;;;;;;;;;;;18.70;99.90;;;;;;5021839;28;19905;-42
2021/07/29 12:22:42;;;;;;;;;;;18.80;99.50;;;;;;5009242;28;19906;-42
2021/07/29 12:25:09;;;;;;;;;;;18.90;99.80;;;;;;5022905;28;20080;-44
2021/07/29 12:27:44;;;;;;;;;;;19.00;99.70;;;;;;5010308;28;19915;-43
2021/07/29 12:30:29;;;;;;;;;;;19.10;99.50;;;;;;5017498;28;19906;-43
2021/07/29 12:33:11;;;;;;;;;;;19.20;99.00;;;;;;5030284;28;19909;-41
2021/07/29 12:35:37;;;;;;;;;;;19.40;98.30;;;;;;5016561;28;19920;-42
2021/07/29 12:38:05;;;;;;;;;;;19.60;97.80;;;;;;5030341;28;19909;-42
2021/07/29 12:40:31;;;;;;;;;;;19.70;96.70;;;;;;5016044;28;19920;-43
2021/07/29 12:43:15;;;;;;;;;;;19.70;96.60;;;;;;5028980;28;19909;-39
2021/07/29 12:45:47;;;;;;;;;;;19.60;96.80;;;;;;5016863;28;20004;-42
2021/07/29 12:48:13;;;;;;;;;;;19.50;97.90;;;;;;5029790;28;19905;-39
2021/07/29 12:50:39;;;;;;;;;;;19.40;98.10;;;;;;5016336;28;19932;-42
2021/07/29 12:53:08;;;;;;;;;;;19.40;98.30;;;;;;5029293;28;19912;-42
2021/07/29 12:55:38;;;;;;;;;;;19.40;98.50;;;;;;5018992;28;20357;-45
2021/07/29 12:58:04;;;;;;;;;;;19.40;99.00;;;;;;5027259;28;20264;-42
2021/07/29 13:00:29;;;;;;;;;;;19.40;98.70;;;;;;5020887;28;19909;-41
2021/07/29 13:02:55;;;;;;;;;;;19.40;98.70;;;;;;5024977;28;19909;-42
2021/07/29 13:05:20;;;;;;;;;;;19.40;98.70;;;;;;5023391;28;19932;-42
2021/07/29 13:07:48;;;;;;;;;;;19.40;98.80;;;;;;5021942;28;19917;-42
2021/07/29 13:10:13;;;;;;;;;;;19.50;98.90;;;;;;5025640;28;19920;-41
2021/07/29 13:12:39;;;;;;;;;;;19.50;98.80;;;;;;5019492;28;19905;-42
2021/07/29 13:15:05;;;;;;;;;;;19.50;98.90;;;;;;5027537;28;20134;-39
2021/07/29 13:17:30;;;;;;;;;;;19.50;98.90;;;;;;5017593;28;19912;-41
2021/07/29 13:20:01;;;;;;;;;;;19.60;98.90;;;;;;5027996;28;19991;-40
2021/07/29 13:22:31;;;;;;;;;;;19.60;98.70;;;;;;5017723;28;20328;-40
2021/07/29 13:24:58;;;;;;;;;;;19.70;98.70;;;;;;5027839;28;19956;-42
2021/07/29 13:27:23;;;;;;;;;;;19.80;98.70;;;;;;5015394;28;19916;-38
2021/07/29 13:29:49;;;;;;;;;;;19.90;98.50;;;;;;5010541;28;19909;-43
2021/07/29 13:32:14;;;;;;;;;;;20.00;98.40;;;;;;5021050;28;20280;-42
2021/07/29 13:34:40;;;;;;;;;;;20.10;98.20;;;;;;5008960;28;20621;-42
2021/07/29 13:37:05;;;;;;;;;;;20.20;98.00;;;;;;5020047;28;19912;-40
2021/07/29 13:39:31;;;;;;;;;;;20.30;97.90;;;;;;5008742;28;19921;-42
2021/07/29 13:41:56;;;;;;;;;;;20.40;97.70;;;;;;5017497;28;19909;-43
2021/07/29 13:44:22;;;;;;;;;;;20.60;97.60;;;;;;5012821;28;19906;-43
2021/07/29 13:46:48;;;;;;;;;;;20.70;97.50;;;;;;5014380;28;19908;-42
2021/07/29 13:49:13;;;;;;;;;;;20.80;96.90;;;;;;5016115;28;19910;-42
2021/07/29 13:51:41;;;;;;;;;;;20.80;96.60;;;;;;5011443;28;19949;-43
2021/07/29 13:54:07;;;;;;;;;;;20.90;96.10;;;;;;5017128;28;20016;-43
2021/07/29 13:56:33;;;;;;;;;;;21.00;95.80;;;;;;5010075;28;19988;-44
2021/07/29 13:58:58;;;;;;;;;;;21.00;95.90;;;;;;5019999;28;19959;-43
2021/07/29 14:01:25;;;;;;;;;;;21.00;95.70;;;;;;5009560;28;19906;-41
2021/07/29 14:03:54;;;;;;;;;;;21.10;95.70;;;;;;5020280;28;19913;-43
2021/07/29 14:06:19;;;;;;;;;;;21.20;95.80;;;;;;5007824;28;20352;-42
2021/07/29 14:08:49;;;;;;;;;;;21.10;95.70;;;;;;5020700;28;19909;-42
2021/07/29 14:11:22;;;;;;;;;;;21.20;95.30;;;;;;5009509;28;19912;-43
2021/07/29 14:13:50;;;;;;;;;;;21.20;95.40;;;;;;5021006;28;20012;-43
2021/07/29 14:16:16;;;;;;;;;;;21.40;95.60;;;;;;5008743;28;19909;-40